createdAt,value
2023-05-11T00:00:26.391Z,0.52
2023-05-11T00:01:25.593Z,0.52
2023-05-11T00:02:25.742Z,0.52
2023-05-11T00:03:26.034Z,0.50
2023-05-11T00:04:25.741Z,0.52
2023-05-11T00:05:25.617Z,0.51
2023-05-11T00:06:25.623Z,0.51
2023-05-11T00:07:25.658Z,0.51
2023-05-11T00:08:25.631Z,0.52
2023-05-11T00:09:25.638Z,0.52
2023-05-11T00:10:25.703Z,0.51
2023-05-11T00:11:25.719Z,0.51
2023-05-11T00:12:25.822Z,0.51
2023-05-11T00:13:25.796Z,0.51
2023-05-11T00:14:25.807Z,0.51
2023-05-11T00:15:25.814Z,0.51
2023-05-11T00:16:25.819Z,0.51
2023-05-11T00:17:25.852Z,0.50
2023-05-11T00:18:25.903Z,0.51
2023-05-11T00:19:25.937Z,0.52
2023-05-11T00:20:25.890Z,0.52
2023-05-11T00:21:25.904Z,0.51
2023-05-11T00:22:25.939Z,0.50
2023-05-11T00:23:25.894Z,0.51
2023-05-11T00:24:25.952Z,0.52
2023-05-11T00:25:25.929Z,0.51
2023-05-11T00:26:25.962Z,0.51
2023-05-11T00:27:25.880Z,0.50
2023-05-11T00:28:25.993Z,0.51
2023-05-11T00:29:25.997Z,0.52
2023-05-11T00:30:26.059Z,0.51
2023-05-11T00:31:27.489Z,0.51
2023-05-11T00:32:25.944Z,0.52
2023-05-11T00:33:25.909Z,0.52
2023-05-11T00:34:25.887Z,0.51
2023-05-11T00:35:25.894Z,0.51
2023-05-11T00:36:25.881Z,0.50
2023-05-11T00:37:26.259Z,0.51
2023-05-11T00:38:25.849Z,0.51
2023-05-11T00:39:25.846Z,0.51
2023-05-11T00:40:25.857Z,0.51
2023-05-11T00:41:25.821Z,0.51
2023-05-11T00:42:25.847Z,0.50
2023-05-11T00:43:25.843Z,0.51
2023-05-11T00:44:25.830Z,0.51
2023-05-11T00:45:25.842Z,0.51
2023-05-11T00:46:25.836Z,0.51
2023-05-11T00:47:25.847Z,0.51
2023-05-11T00:48:25.810Z,0.50
2023-05-11T00:49:25.935Z,0.51
2023-05-11T00:50:25.800Z,0.51
2023-05-11T00:51:25.814Z,0.51
2023-05-11T00:52:25.765Z,0.51
2023-05-11T00:53:25.782Z,0.50
2023-05-11T00:54:25.765Z,0.52
2023-05-11T00:55:25.774Z,0.51
2023-05-11T00:56:25.736Z,0.51
2023-05-11T00:57:25.786Z,0.51
2023-05-11T00:58:25.770Z,0.51
2023-05-11T00:59:25.775Z,0.51
2023-05-11T01:00:25.713Z,0.52
2023-05-11T01:01:25.812Z,0.51
2023-05-11T01:02:25.818Z,0.51
2023-05-11T01:03:25.754Z,0.51
2023-05-11T01:04:25.727Z,0.51
2023-05-11T01:05:25.742Z,0.51
2023-05-11T01:06:25.696Z,0.50
2023-05-11T01:07:25.665Z,0.51
2023-05-11T01:08:25.682Z,0.51
2023-05-11T01:09:25.706Z,0.51
2023-05-11T01:10:25.695Z,0.51
2023-05-11T01:11:25.687Z,0.51
2023-05-11T01:12:25.635Z,0.51
2023-05-11T01:13:25.645Z,0.52
2023-05-11T01:14:25.662Z,0.52
2023-05-11T01:15:25.662Z,0.51
2023-05-11T01:16:25.684Z,0.51
2023-05-11T01:17:25.611Z,0.51
2023-05-11T01:18:25.687Z,0.51
2023-05-11T01:19:25.622Z,0.52
2023-05-11T01:20:25.607Z,0.52
2023-05-11T01:21:25.612Z,0.51
2023-05-11T01:22:25.632Z,0.51
2023-05-11T01:23:25.618Z,0.52
2023-05-11T01:24:25.960Z,0.51
2023-05-11T01:25:25.559Z,0.51
2023-05-11T01:26:25.566Z,0.51
2023-05-11T01:27:25.552Z,0.52
2023-05-11T01:28:25.541Z,0.52
2023-05-11T01:29:25.600Z,0.51
2023-05-11T01:30:25.555Z,0.52
2023-05-11T01:31:25.561Z,0.51
2023-05-11T01:32:25.582Z,0.51
2023-05-11T01:33:25.534Z,0.51
2023-05-11T01:34:25.542Z,0.51
2023-05-11T01:35:25.517Z,0.51
2023-05-11T01:36:25.501Z,0.50
2023-05-11T01:37:25.514Z,0.51
2023-05-11T01:38:25.492Z,0.51
2023-05-11T01:39:25.489Z,0.51
2023-05-11T01:40:25.490Z,0.52
2023-05-11T01:41:25.482Z,0.52
2023-05-11T01:42:26.437Z,0.50
2023-05-11T01:43:25.444Z,0.51
2023-05-11T01:44:25.971Z,0.51
2023-05-11T01:45:25.437Z,0.52
2023-05-11T01:46:25.496Z,0.51
2023-05-11T01:47:25.433Z,0.51
2023-05-11T01:48:25.428Z,0.50
2023-05-11T01:49:25.449Z,0.51
2023-05-11T01:50:25.439Z,0.50
2023-05-11T01:51:25.429Z,0.51
2023-05-11T01:52:25.426Z,0.51
2023-05-11T01:53:25.382Z,0.51
2023-05-11T01:54:25.390Z,0.51
2023-05-11T01:55:25.365Z,0.51
2023-05-11T01:56:25.395Z,0.51
2023-05-11T01:57:25.380Z,0.51
2023-05-11T01:58:25.364Z,0.52
2023-05-11T01:59:25.504Z,0.50
2023-05-11T02:00:25.393Z,0.51
2023-05-11T02:01:25.380Z,0.51
2023-05-11T02:02:25.414Z,0.51
2023-05-11T02:03:25.522Z,0.51
2023-05-11T02:04:25.357Z,0.50
2023-05-11T02:05:25.330Z,0.50
2023-05-11T02:06:25.315Z,0.50
2023-05-11T02:07:25.312Z,0.51
2023-05-11T02:08:25.325Z,0.50
2023-05-11T02:09:25.300Z,0.51
2023-05-11T02:10:25.304Z,0.51
2023-05-11T02:11:25.305Z,0.50
2023-05-11T02:12:25.316Z,0.52
2023-05-11T02:13:25.279Z,0.51
2023-05-11T02:14:25.300Z,0.50
2023-05-11T02:15:25.284Z,0.51
2023-05-11T02:16:25.391Z,0.51
2023-05-11T02:17:25.329Z,0.51
2023-05-11T02:18:25.268Z,0.50
2023-05-11T02:19:25.243Z,0.52
2023-05-11T02:20:25.246Z,0.51
2023-05-11T02:21:25.242Z,0.51
2023-05-11T02:22:25.231Z,0.52
2023-05-11T02:23:25.223Z,0.50
2023-05-11T02:24:25.461Z,0.51
2023-05-11T02:25:25.214Z,0.52
2023-05-11T02:26:25.172Z,0.51
2023-05-11T02:27:25.229Z,0.52
2023-05-11T02:28:25.192Z,0.51
2023-05-11T02:29:25.170Z,0.51
2023-05-11T02:30:25.184Z,0.52
2023-05-11T02:31:25.189Z,0.51
2023-05-11T02:32:25.198Z,0.51
2023-05-11T02:33:25.146Z,0.51
2023-05-11T02:34:25.137Z,0.51
2023-05-11T02:35:25.133Z,0.51
2023-05-11T02:36:25.148Z,0.52
2023-05-11T02:37:25.125Z,0.51
2023-05-11T02:38:25.108Z,0.52
2023-05-11T02:39:25.129Z,0.51
2023-05-11T02:40:25.112Z,0.51
2023-05-11T02:41:25.089Z,0.51
2023-05-11T02:42:25.084Z,0.51
2023-05-11T02:43:25.102Z,0.51
2023-05-11T02:44:25.097Z,0.50
2023-05-11T02:45:25.058Z,0.51
2023-05-11T02:46:25.095Z,0.51
2023-05-11T02:47:25.072Z,0.51
2023-05-11T02:48:25.065Z,0.51
2023-05-11T02:49:25.047Z,0.51
2023-05-11T02:50:25.048Z,0.50
2023-05-11T02:51:25.043Z,0.52
2023-05-11T02:52:25.017Z,0.51
2023-05-11T02:53:25.005Z,0.52
2023-05-11T02:54:25.001Z,0.51
2023-05-11T02:55:25.023Z,0.52
2023-05-11T02:56:25.023Z,0.51
2023-05-11T02:57:25.016Z,0.51
2023-05-11T02:58:25.010Z,0.51
2023-05-11T02:59:24.994Z,0.52
2023-05-11T03:00:25.039Z,0.51
2023-05-11T03:01:26.304Z,0.52
2023-05-11T03:02:25.048Z,0.51
2023-05-11T03:03:25.121Z,0.51
2023-05-11T03:04:24.976Z,0.51
2023-05-11T03:05:24.950Z,0.51
2023-05-11T03:06:24.956Z,0.50
2023-05-11T03:07:24.950Z,0.51
2023-05-11T03:08:24.942Z,0.51
2023-05-11T03:09:24.982Z,0.50
2023-05-11T03:10:24.937Z,0.50
2023-05-11T03:11:24.906Z,0.51
2023-05-11T03:12:24.924Z,0.51
2023-05-11T03:13:24.910Z,0.50
2023-05-11T03:14:24.894Z,0.51
2023-05-11T03:15:24.877Z,0.52
2023-05-11T03:16:24.969Z,0.50
2023-05-11T03:17:24.941Z,0.51
2023-05-11T03:18:24.932Z,0.51
2023-05-11T03:19:24.897Z,0.52
2023-05-11T03:20:24.934Z,0.50
2023-05-11T03:21:24.925Z,0.50
2023-05-11T03:22:24.942Z,0.51
2023-05-11T03:23:24.949Z,0.51
2023-05-11T03:24:24.972Z,0.51
2023-05-11T03:25:24.962Z,0.51
2023-05-11T03:26:24.957Z,0.51
2023-05-11T03:27:24.980Z,0.52
2023-05-11T03:28:24.974Z,0.51
2023-05-11T03:29:24.997Z,0.51
2023-05-11T03:30:24.993Z,0.51
2023-05-11T03:31:24.994Z,0.51
2023-05-11T03:32:25.245Z,0.52
2023-05-11T03:33:24.961Z,0.51
2023-05-11T03:34:25.032Z,0.50
2023-05-11T03:35:24.988Z,0.51
2023-05-11T03:36:24.986Z,0.51
2023-05-11T03:37:25.015Z,0.51
2023-05-11T03:38:24.998Z,0.51
2023-05-11T03:39:25.014Z,0.51
2023-05-11T03:40:24.979Z,0.51
2023-05-11T03:41:24.991Z,0.50
2023-05-11T03:42:25.026Z,0.51
2023-05-11T03:43:25.005Z,0.50
2023-05-11T03:44:25.059Z,0.50
2023-05-11T03:45:25.035Z,0.51
2023-05-11T03:46:25.074Z,0.51
2023-05-11T03:47:25.049Z,0.50
2023-05-11T03:48:25.051Z,0.50
2023-05-11T03:49:25.518Z,0.51
2023-05-11T03:50:25.089Z,0.52
2023-05-11T03:51:25.059Z,0.51
2023-05-11T03:52:25.080Z,0.51
2023-05-11T03:53:25.070Z,0.52
2023-05-11T03:54:25.145Z,0.51
2023-05-11T03:55:25.114Z,0.50
2023-05-11T03:56:25.119Z,0.51
2023-05-11T03:57:25.155Z,0.52
2023-05-11T03:58:25.141Z,0.52
2023-05-11T03:59:25.127Z,0.51
2023-05-11T04:00:25.127Z,0.51
2023-05-11T04:01:25.127Z,0.50
2023-05-11T04:02:25.186Z,0.51
2023-05-11T04:03:25.378Z,0.50
2023-05-11T04:04:25.267Z,0.50
2023-05-11T04:05:25.495Z,0.51
2023-05-11T04:06:25.167Z,0.51
2023-05-11T04:07:25.176Z,0.50
2023-05-11T04:08:25.148Z,0.52
2023-05-11T04:09:25.165Z,0.50
2023-05-11T04:10:25.191Z,0.51
2023-05-11T04:11:25.178Z,0.51
2023-05-11T04:12:25.209Z,0.50
2023-05-11T04:13:25.186Z,0.50
2023-05-11T04:14:25.229Z,0.52
2023-05-11T04:15:25.232Z,0.52
2023-05-11T04:16:25.249Z,0.52
2023-05-11T04:17:25.308Z,0.51
2023-05-11T04:18:25.287Z,0.51
2023-05-11T04:19:25.289Z,0.52
2023-05-11T04:20:25.294Z,0.51
2023-05-11T04:21:25.288Z,0.51
2023-05-11T04:22:25.292Z,0.52
2023-05-11T04:23:25.340Z,0.51
2023-05-11T04:24:25.316Z,0.51
2023-05-11T04:25:25.340Z,0.52
2023-05-11T04:26:25.349Z,0.51
2023-05-11T04:27:25.358Z,0.52
2023-05-11T04:28:25.327Z,0.52
2023-05-11T04:29:25.333Z,0.52
2023-05-11T04:30:25.491Z,0.52
2023-05-11T04:31:25.426Z,0.51
2023-05-11T04:32:25.427Z,0.51
2023-05-11T04:33:25.396Z,0.50
2023-05-11T04:34:25.409Z,0.51
2023-05-11T04:35:25.510Z,0.51
2023-05-11T04:36:25.449Z,0.51
2023-05-11T04:37:25.445Z,0.50
2023-05-11T04:38:25.474Z,0.52
2023-05-11T04:39:25.447Z,0.51
2023-05-11T04:40:25.513Z,0.51
2023-05-11T04:41:25.480Z,0.52
2023-05-11T04:42:25.492Z,0.51
2023-05-11T04:43:25.476Z,0.50
2023-05-11T04:44:25.472Z,0.50
2023-05-11T04:45:25.504Z,0.51
2023-05-11T04:46:25.540Z,0.52
2023-05-11T04:47:25.626Z,0.51
2023-05-11T04:48:25.523Z,0.51
2023-05-11T04:49:25.521Z,0.52
2023-05-11T04:50:25.533Z,0.51
2023-05-11T04:51:25.549Z,0.50
2023-05-11T04:52:25.578Z,0.51
2023-05-11T04:53:25.577Z,0.51
2023-05-11T04:54:25.616Z,0.52
2023-05-11T04:55:25.617Z,0.52
2023-05-11T04:56:25.629Z,0.51
2023-05-11T04:57:25.638Z,0.51
2023-05-11T04:58:25.643Z,0.52
2023-05-11T04:59:25.664Z,0.51
2023-05-11T05:00:26.071Z,0.51
2023-05-11T05:01:25.735Z,0.50
2023-05-11T05:02:25.774Z,0.51
2023-05-11T05:03:25.762Z,0.51
2023-05-11T05:04:25.763Z,0.51
2023-05-11T05:05:26.104Z,0.50
2023-05-11T05:06:25.859Z,0.50
2023-05-11T05:07:25.810Z,0.51
2023-05-11T05:08:25.785Z,0.50
2023-05-11T05:09:25.793Z,0.51
2023-05-11T05:10:25.838Z,0.50
2023-05-11T05:11:25.827Z,0.52
2023-05-11T05:12:25.838Z,0.51
2023-05-11T05:13:25.875Z,0.52
2023-05-11T05:14:25.871Z,0.51
2023-05-11T05:15:25.905Z,0.51
2023-05-11T05:16:25.926Z,0.51
2023-05-11T05:17:25.895Z,0.51
2023-05-11T05:18:25.918Z,0.52
2023-05-11T05:19:25.900Z,0.51
2023-05-11T05:20:26.050Z,0.50
2023-05-11T05:21:25.921Z,0.51
2023-05-11T05:22:25.941Z,0.52
2023-05-11T05:23:25.927Z,0.51
2023-05-11T05:24:25.939Z,0.52
2023-05-11T05:25:26.074Z,0.52
2023-05-11T05:26:25.951Z,0.51
2023-05-11T05:27:25.976Z,0.50
2023-05-11T05:28:25.967Z,0.49
2023-05-11T05:29:25.989Z,0.52
2023-05-11T05:30:26.030Z,0.50
2023-05-11T05:31:26.136Z,0.50
2023-05-11T05:32:26.092Z,0.50
2023-05-11T05:33:26.128Z,0.51
2023-05-11T05:34:26.173Z,0.50
2023-05-11T05:35:26.513Z,0.51
2023-05-11T05:36:26.289Z,0.51
2023-05-11T05:37:26.355Z,0.52
2023-05-11T05:38:26.376Z,0.50
2023-05-11T05:39:26.438Z,0.50
2023-05-11T05:40:26.554Z,0.50
2023-05-11T05:41:26.577Z,0.50
2023-05-11T05:42:26.654Z,0.51
2023-05-11T05:43:26.682Z,0.51
2023-05-11T05:44:26.744Z,0.50
2023-05-11T05:45:26.822Z,0.52
2023-05-11T05:46:26.892Z,0.51
2023-05-11T05:47:26.974Z,0.50
2023-05-11T05:48:26.989Z,0.51
2023-05-11T05:49:27.031Z,0.50
2023-05-11T05:50:27.526Z,0.51
2023-05-11T05:51:27.130Z,0.51
2023-05-11T05:52:27.148Z,0.51
2023-05-11T05:53:27.172Z,0.51
2023-05-11T05:54:27.210Z,0.51
2023-05-11T05:55:27.556Z,0.52
2023-05-11T05:56:27.188Z,0.52
2023-05-11T05:57:27.211Z,0.54
2023-05-11T05:58:27.188Z,0.60
2023-05-11T05:59:27.226Z,0.61
2023-05-11T06:00:27.565Z,0.61
2023-05-11T06:01:27.329Z,0.59
2023-05-11T06:02:27.469Z,0.60
2023-05-11T06:03:29.189Z,0.60
2023-05-11T06:04:27.507Z,0.61
2023-05-11T06:05:27.550Z,0.59
2023-05-11T06:06:27.557Z,0.58
2023-05-11T06:07:27.585Z,0.65
2023-05-11T06:08:27.621Z,0.66
2023-05-11T06:09:27.635Z,0.66
2023-05-11T06:10:28.075Z,0.70
2023-05-11T06:11:27.718Z,0.74
2023-05-11T06:12:27.782Z,0.68
2023-05-11T06:13:27.814Z,0.69
2023-05-11T06:14:27.852Z,0.73
2023-05-11T06:15:28.034Z,0.76
2023-05-11T06:16:28.129Z,0.76
2023-05-11T06:17:28.080Z,0.78
2023-05-11T06:18:28.155Z,0.76
2023-05-11T06:19:28.163Z,0.77
2023-05-11T06:20:28.295Z,0.79
2023-05-11T06:21:28.272Z,0.75
2023-05-11T06:22:28.345Z,0.75
2023-05-11T06:23:28.415Z,0.75
2023-05-11T06:24:28.482Z,0.78
2023-05-11T06:25:28.540Z,0.78
2023-05-11T06:26:28.593Z,0.77
2023-05-11T06:27:28.702Z,0.72
2023-05-11T06:28:28.669Z,0.76
2023-05-11T06:29:28.700Z,0.76
2023-05-11T06:30:29.050Z,0.76
2023-05-11T06:31:28.820Z,0.76
2023-05-11T06:32:28.839Z,0.75
2023-05-11T06:33:28.890Z,0.76
2023-05-11T06:34:28.940Z,0.73
2023-05-11T06:35:29.060Z,0.71
2023-05-11T06:36:29.071Z,0.72
2023-05-11T06:37:29.121Z,0.74
2023-05-11T06:38:29.221Z,0.71
2023-05-11T06:39:29.262Z,0.75
2023-05-11T06:40:29.609Z,0.73
2023-05-11T06:41:29.309Z,0.75
2023-05-11T06:42:29.427Z,0.75
2023-05-11T06:43:29.489Z,0.78
2023-05-11T06:44:29.532Z,0.77
2023-05-11T06:45:29.603Z,0.79
2023-05-11T06:46:29.689Z,0.79
2023-05-11T06:47:29.659Z,0.81
2023-05-11T06:48:29.667Z,0.86
2023-05-11T06:49:29.696Z,0.87
2023-05-11T06:50:30.272Z,0.87
2023-05-11T06:51:29.762Z,0.87
2023-05-11T06:52:29.778Z,0.87
2023-05-11T06:53:29.860Z,0.90
2023-05-11T06:54:29.808Z,0.93
2023-05-11T06:55:29.819Z,0.98
2023-05-11T06:56:29.853Z,0.99
2023-05-11T06:57:29.863Z,1.00
2023-05-11T06:58:29.847Z,1.05
2023-05-11T06:59:29.869Z,1.06
2023-05-11T07:00:30.065Z,1.11
2023-05-11T07:01:29.897Z,1.14
2023-05-11T07:02:29.889Z,1.17
2023-05-11T07:03:29.876Z,1.19
2023-05-11T07:04:29.991Z,1.19
2023-05-11T07:05:29.945Z,1.24
2023-05-11T07:06:30.009Z,1.23
2023-05-11T07:07:30.028Z,1.26
2023-05-11T07:08:30.101Z,1.29
2023-05-11T07:09:30.149Z,1.32
2023-05-11T07:10:30.586Z,1.33
2023-05-11T07:11:30.288Z,1.32
2023-05-11T07:12:30.358Z,1.37
2023-05-11T07:13:30.424Z,1.35
2023-05-11T07:14:30.463Z,1.39
2023-05-11T07:15:30.565Z,1.38
2023-05-11T07:16:30.638Z,1.39
2023-05-11T07:17:30.673Z,1.43
2023-05-11T07:18:30.721Z,1.49
2023-05-11T07:19:30.742Z,1.49
2023-05-11T07:20:31.123Z,1.47
2023-05-11T07:21:30.821Z,1.49
2023-05-11T07:22:30.857Z,1.48
2023-05-11T07:23:30.926Z,1.48
2023-05-11T07:24:30.965Z,1.51
2023-05-11T07:25:31.023Z,1.52
2023-05-11T07:26:31.062Z,1.56
2023-05-11T07:27:31.093Z,1.57
2023-05-11T07:28:31.097Z,1.55
2023-05-11T07:29:31.163Z,1.57
2023-05-11T07:30:31.224Z,1.58
2023-05-11T07:31:31.614Z,1.66
2023-05-11T07:32:31.280Z,1.51
2023-05-11T07:33:31.325Z,1.33
2023-05-11T07:34:31.383Z,1.22
2023-05-11T07:35:31.497Z,1.10
2023-05-11T07:36:31.586Z,1.05
2023-05-11T07:37:31.495Z,1.01
2023-05-11T07:38:31.487Z,0.92
2023-05-11T07:39:31.532Z,0.93
2023-05-11T07:40:31.537Z,0.94
2023-05-11T07:41:31.578Z,1.00
2023-05-11T07:42:31.550Z,1.00
2023-05-11T07:43:31.565Z,1.00
2023-05-11T07:44:31.557Z,1.01
2023-05-11T07:45:31.611Z,1.02
2023-05-11T07:46:32.134Z,1.08
2023-05-11T07:47:32.335Z,1.12
2023-05-11T07:48:31.579Z,1.15
2023-05-11T07:49:42.953Z,1.18
2023-05-11T07:50:32.550Z,1.18
2023-05-11T07:51:31.578Z,1.19
2023-05-11T07:52:31.574Z,1.21
2023-05-11T07:53:31.568Z,1.24
2023-05-11T07:54:31.587Z,1.31
2023-05-11T07:55:31.553Z,1.30
2023-05-11T07:56:31.589Z,1.34
2023-05-11T07:57:31.535Z,1.35
2023-05-11T07:58:31.539Z,1.33
2023-05-11T07:59:31.599Z,1.33
2023-05-11T08:00:31.642Z,1.36
2023-05-11T08:01:32.078Z,1.38
2023-05-11T08:02:31.841Z,1.38
2023-05-11T08:03:31.849Z,1.36
2023-05-11T08:04:31.842Z,1.40
2023-05-11T08:05:31.898Z,1.41
2023-05-11T08:06:31.909Z,1.42
2023-05-11T08:07:31.961Z,1.44
2023-05-11T08:08:31.978Z,1.49
2023-05-11T08:09:32.023Z,1.49
2023-05-11T08:10:32.075Z,1.49
2023-05-11T08:11:32.079Z,1.48
2023-05-11T08:12:32.092Z,1.50
2023-05-11T08:13:32.107Z,1.52
2023-05-11T08:14:32.154Z,1.54
2023-05-11T08:15:32.186Z,1.53
2023-05-11T08:16:32.661Z,1.52
2023-05-11T08:17:32.252Z,1.56
2023-05-11T08:18:32.295Z,1.56
2023-05-11T08:19:32.238Z,1.58
2023-05-11T08:20:32.265Z,1.61
2023-05-11T08:21:32.318Z,1.51
2023-05-11T08:22:32.326Z,1.37
2023-05-11T08:23:32.372Z,1.25
2023-05-11T08:24:32.459Z,1.10
2023-05-11T08:25:32.468Z,1.00
2023-05-11T08:26:32.536Z,0.97
2023-05-11T08:27:32.496Z,0.89
2023-05-11T08:28:32.554Z,0.86
2023-05-11T08:29:32.493Z,0.82
2023-05-11T08:30:32.576Z,0.86
2023-05-11T08:31:32.598Z,0.83
2023-05-11T08:32:40.689Z,0.88
2023-05-11T08:33:38.175Z,0.88
2023-05-11T08:34:32.696Z,0.89
2023-05-11T08:35:32.544Z,0.89
2023-05-11T08:36:32.628Z,0.91
2023-05-11T08:37:32.544Z,0.95
2023-05-11T08:38:32.562Z,1.00
2023-05-11T08:39:45.814Z,1.06
2023-05-11T08:40:33.577Z,1.06
2023-05-11T08:41:32.537Z,1.07
2023-05-11T08:42:32.516Z,1.09
2023-05-11T08:43:32.493Z,1.13
2023-05-11T08:44:32.506Z,1.20
2023-05-11T08:45:32.549Z,1.22
2023-05-11T08:46:32.485Z,1.23
2023-05-11T08:47:32.515Z,1.27
2023-05-11T08:48:32.514Z,1.29
2023-05-11T08:49:32.531Z,1.31
2023-05-11T08:50:32.505Z,1.32
2023-05-11T08:51:32.545Z,1.31
2023-05-11T08:52:32.567Z,1.31
2023-05-11T08:53:32.659Z,1.30
2023-05-11T08:54:32.639Z,1.31
2023-05-11T08:55:32.672Z,1.33
2023-05-11T08:56:33.095Z,1.33
2023-05-11T08:57:32.763Z,1.35
2023-05-11T08:58:32.813Z,1.34
2023-05-11T08:59:32.809Z,1.37
2023-05-11T09:00:32.862Z,1.38
2023-05-11T09:01:33.180Z,1.45
2023-05-11T09:02:32.947Z,1.38
2023-05-11T09:03:32.937Z,1.40
2023-05-11T09:04:32.953Z,1.35
2023-05-11T09:05:33.073Z,1.34
2023-05-11T09:06:33.090Z,1.30
2023-05-11T09:07:33.002Z,1.30
2023-05-11T09:08:33.087Z,1.26
2023-05-11T09:09:33.089Z,1.26
2023-05-11T09:10:33.099Z,1.25
2023-05-11T09:11:33.164Z,1.25
2023-05-11T09:12:33.207Z,1.21
2023-05-11T09:13:33.215Z,1.22
2023-05-11T09:14:33.256Z,1.22
2023-05-11T09:15:37.081Z,1.23
2023-05-11T09:16:37.584Z,1.23
2023-05-11T09:17:33.355Z,1.23
2023-05-11T09:18:33.308Z,1.18
2023-05-11T09:19:33.287Z,1.19
2023-05-11T09:20:33.271Z,1.16
2023-05-11T09:21:33.613Z,0.98
2023-05-11T09:22:35.376Z,1.02
2023-05-11T09:23:33.247Z,0.84
2023-05-11T09:24:33.272Z,0.81
2023-05-11T09:25:33.230Z,0.76
2023-05-11T09:26:33.629Z,0.71
2023-05-11T09:27:33.263Z,0.73
2023-05-11T09:29:33.233Z,0.65
2023-05-11T09:30:33.240Z,0.66
2023-05-11T09:31:33.224Z,0.67
2023-05-11T09:32:33.204Z,0.70
2023-05-11T09:33:33.228Z,0.78
2023-05-11T09:34:33.240Z,0.77
2023-05-11T09:35:33.313Z,0.84
2023-05-11T09:36:33.659Z,0.92
2023-05-11T09:37:33.359Z,0.90
2023-05-11T09:38:33.358Z,0.90
2023-05-11T09:40:34.385Z,0.88
2023-05-11T09:41:35.814Z,0.88
2023-05-11T09:42:33.446Z,0.89
2023-05-11T09:43:33.459Z,0.90
2023-05-11T09:44:33.454Z,0.93
2023-05-11T09:45:33.480Z,0.97
2023-05-11T09:46:33.659Z,0.97
2023-05-11T09:47:33.530Z,1.00
2023-05-11T09:48:33.568Z,1.03
2023-05-11T09:49:33.665Z,1.06
2023-05-11T09:50:33.780Z,1.08
2023-05-11T09:51:34.117Z,1.10
2023-05-11T09:52:33.824Z,1.07
2023-05-11T09:53:33.849Z,1.11
2023-05-11T09:54:33.923Z,1.14
2023-05-11T09:55:33.995Z,1.15
2023-05-11T09:56:34.132Z,1.17
2023-05-11T09:57:34.078Z,1.17
2023-05-11T09:58:34.111Z,1.18
2023-05-11T09:59:34.177Z,1.22
2023-05-11T10:00:34.195Z,1.24
2023-05-11T10:01:34.335Z,1.23
2023-05-11T10:02:34.330Z,1.24
2023-05-11T10:03:34.409Z,1.26
2023-05-11T10:04:34.480Z,1.27
2023-05-11T10:05:34.381Z,1.32
2023-05-11T10:06:34.407Z,1.30
2023-05-11T10:07:34.460Z,1.33
2023-05-11T10:08:34.506Z,1.36
2023-05-11T10:09:35.512Z,1.36
2023-05-11T10:10:34.457Z,1.37
2023-05-11T10:11:34.505Z,1.38
2023-05-11T10:12:34.444Z,1.40
2023-05-11T10:13:34.447Z,1.43
2023-05-11T10:14:34.477Z,1.45
2023-05-11T10:15:34.457Z,1.52
2023-05-11T10:16:34.492Z,1.51
2023-05-11T10:17:34.680Z,1.54
2023-05-11T10:18:34.525Z,1.57
2023-05-11T10:19:34.409Z,1.58
2023-05-11T10:20:34.421Z,1.61
2023-05-11T10:21:34.473Z,1.64
2023-05-11T10:22:34.690Z,1.65
2023-05-11T10:23:34.405Z,1.72
2023-05-11T10:24:34.377Z,1.68
2023-05-11T10:25:35.139Z,1.71
2023-05-11T10:26:34.392Z,1.66
2023-05-11T10:27:34.628Z,1.71
2023-05-11T10:28:34.373Z,1.68
2023-05-11T10:29:34.386Z,1.60
2023-05-11T10:30:34.368Z,1.52
2023-05-11T10:31:34.392Z,1.50
2023-05-11T10:32:34.681Z,1.48
2023-05-11T10:33:34.329Z,1.48
2023-05-11T10:34:34.308Z,1.45
2023-05-11T10:35:34.318Z,1.48
2023-05-11T10:36:34.337Z,1.43
2023-05-11T10:37:34.615Z,1.43
2023-05-11T10:38:34.320Z,1.38
2023-05-11T10:39:34.356Z,1.37
2023-05-11T10:40:34.382Z,1.38
2023-05-11T10:41:34.392Z,1.38
2023-05-11T10:42:34.657Z,1.38
2023-05-11T10:43:34.444Z,1.37
2023-05-11T10:44:34.498Z,1.37
2023-05-11T10:45:34.532Z,1.35
2023-05-11T10:46:34.610Z,1.32
2023-05-11T10:47:34.711Z,1.32
2023-05-11T10:48:34.584Z,1.33
2023-05-11T10:49:34.636Z,1.34
2023-05-11T10:50:34.669Z,1.31
2023-05-11T10:51:34.669Z,1.33
2023-05-11T10:52:34.742Z,1.31
2023-05-11T10:53:34.760Z,1.29
2023-05-11T10:54:34.784Z,1.27
2023-05-11T10:55:34.790Z,1.24
2023-05-11T10:56:34.841Z,1.24
2023-05-11T10:57:34.870Z,1.25
2023-05-11T10:58:34.862Z,1.23
2023-05-11T10:59:34.929Z,1.23
2023-05-11T11:00:35.018Z,1.21
2023-05-11T11:01:35.103Z,1.18
2023-05-11T11:02:35.049Z,1.21
2023-05-11T11:03:35.064Z,1.19
2023-05-11T11:04:35.121Z,1.20
2023-05-11T11:05:35.224Z,1.15
2023-05-11T11:06:35.174Z,1.21
2023-05-11T11:07:35.660Z,1.18
2023-05-11T11:08:35.238Z,1.18
2023-05-11T11:09:35.235Z,1.20
2023-05-11T11:10:35.274Z,1.19
2023-05-11T11:11:35.328Z,1.13
2023-05-11T11:12:35.629Z,1.14
2023-05-11T11:13:35.407Z,1.15
2023-05-11T11:14:35.453Z,1.12
2023-05-11T11:15:35.501Z,1.17
2023-05-11T11:16:35.515Z,1.17
2023-05-11T11:17:35.947Z,1.17
2023-05-11T11:18:35.642Z,1.17
2023-05-11T11:19:35.582Z,1.16
2023-05-11T11:20:35.613Z,1.17
2023-05-11T11:21:35.663Z,1.12
2023-05-11T11:22:35.720Z,1.07
2023-05-11T11:23:35.712Z,1.10
2023-05-11T11:24:35.702Z,1.11
2023-05-11T11:25:35.770Z,1.12
2023-05-11T11:26:35.819Z,1.13
2023-05-11T11:27:36.129Z,1.13
2023-05-11T11:28:35.868Z,1.08
2023-05-11T11:29:35.891Z,1.04
2023-05-11T11:30:35.908Z,1.02
2023-05-11T11:31:36.030Z,0.99
2023-05-11T11:32:36.156Z,1.00
2023-05-11T11:33:36.055Z,1.01
2023-05-11T11:34:36.091Z,0.96
2023-05-11T11:35:36.146Z,0.97
2023-05-11T11:36:36.185Z,0.97
2023-05-11T11:37:36.680Z,0.93
2023-05-11T11:38:36.304Z,0.91
2023-05-11T11:39:36.342Z,0.96
2023-05-11T11:40:43.269Z,0.95
2023-05-11T11:41:37.415Z,0.95
2023-05-11T11:42:36.396Z,0.95
2023-05-11T11:43:37.835Z,0.93
2023-05-11T11:44:36.384Z,0.94
2023-05-11T11:45:36.449Z,0.97
2023-05-11T11:46:36.387Z,0.97
2023-05-11T11:47:36.379Z,0.94
2023-05-11T11:48:36.445Z,0.94
2023-05-11T11:49:36.361Z,0.91
2023-05-11T11:50:36.416Z,0.88
2023-05-11T11:51:36.453Z,0.86
2023-05-11T11:52:36.686Z,0.86
2023-05-11T11:53:36.576Z,0.85
2023-05-11T11:54:36.631Z,0.84
2023-05-11T11:55:36.690Z,0.83
2023-05-11T11:56:36.781Z,0.83
2023-05-11T11:57:37.169Z,0.81
2023-05-11T11:58:36.855Z,0.79
2023-05-11T11:59:36.948Z,0.79
2023-05-11T12:00:36.970Z,0.75
2023-05-11T12:01:37.033Z,0.75
2023-05-11T12:02:37.313Z,0.76
2023-05-11T12:03:37.347Z,0.74
2023-05-11T12:04:37.283Z,0.72
2023-05-11T12:05:37.309Z,0.71
2023-05-11T12:06:37.389Z,0.71
2023-05-11T12:07:37.663Z,0.70
2023-05-11T12:08:37.486Z,0.71
2023-05-11T12:09:37.549Z,0.72
2023-05-11T12:10:37.652Z,0.71
2023-05-11T12:11:37.664Z,0.71
2023-05-11T12:12:38.177Z,0.71
2023-05-11T12:13:37.786Z,0.72
2023-05-11T12:14:37.834Z,0.72
2023-05-11T12:15:37.934Z,0.72
2023-05-11T12:16:38.048Z,0.70
2023-05-11T12:17:38.072Z,0.70
2023-05-11T12:18:38.172Z,0.72
2023-05-11T12:19:38.185Z,0.72
2023-05-11T12:20:38.270Z,0.70
2023-05-11T12:21:38.318Z,0.69
2023-05-11T12:22:38.380Z,0.74
2023-05-11T12:23:38.415Z,0.72
2023-05-11T12:24:38.523Z,0.72
2023-05-11T12:25:38.545Z,0.73
2023-05-11T12:26:38.592Z,0.72
2023-05-11T12:27:38.701Z,0.72
2023-05-11T12:28:38.727Z,0.72
2023-05-11T12:29:38.782Z,0.70
2023-05-11T12:30:38.855Z,0.71
2023-05-11T12:31:39.004Z,0.73
2023-05-11T12:32:39.186Z,0.71
2023-05-11T12:33:39.063Z,0.72
2023-05-11T12:34:39.109Z,0.72
2023-05-11T12:35:39.163Z,0.71
2023-05-11T12:36:39.230Z,0.72
2023-05-11T12:37:39.693Z,0.72
2023-05-11T12:38:39.307Z,0.73
2023-05-11T12:39:39.389Z,0.72
2023-05-11T12:40:39.435Z,0.72
2023-05-11T12:41:39.511Z,0.71
2023-05-11T12:42:39.657Z,0.71
2023-05-11T12:43:39.632Z,0.72
2023-05-11T12:44:39.642Z,0.73
2023-05-11T12:45:39.720Z,0.73
2023-05-11T12:46:39.812Z,0.73
2023-05-11T12:47:39.860Z,0.75
2023-05-11T12:48:39.885Z,0.77
2023-05-11T12:49:39.939Z,0.78
2023-05-11T12:50:40.049Z,0.82
2023-05-11T12:51:40.021Z,0.80
2023-05-11T12:52:40.162Z,0.82
2023-05-11T12:53:40.680Z,0.82
2023-05-11T12:54:40.229Z,0.83
2023-05-11T12:55:40.249Z,0.82
2023-05-11T12:56:40.287Z,0.80
2023-05-11T12:57:40.367Z,0.79
2023-05-11T12:58:40.408Z,0.79
2023-05-11T12:59:40.542Z,0.81
2023-05-11T13:00:47.474Z,0.81
2023-05-11T13:01:40.513Z,0.81
2023-05-11T13:02:40.601Z,0.81
2023-05-11T13:03:40.585Z,0.81
2023-05-11T13:04:40.465Z,0.80
2023-05-11T13:05:40.471Z,0.81
2023-05-11T13:06:40.485Z,0.80
2023-05-11T13:07:40.485Z,0.80
2023-05-11T13:08:40.478Z,0.79
2023-05-11T13:09:40.451Z,0.77
2023-05-11T13:10:40.470Z,0.77
2023-05-11T13:11:40.428Z,0.78
2023-05-11T13:12:40.477Z,0.78
2023-05-11T13:13:40.488Z,0.76
2023-05-11T13:14:40.453Z,0.76
2023-05-11T13:15:40.449Z,0.75
2023-05-11T13:16:40.403Z,0.76
2023-05-11T13:17:40.446Z,0.77
2023-05-11T13:18:40.446Z,0.77
2023-05-11T13:19:40.392Z,0.75
2023-05-11T13:20:40.386Z,0.75